createdAt,value
2023-04-01T00:02:17.262Z,8.60
2023-04-01T00:05:19.268Z,8.60
2023-04-01T00:08:21.365Z,8.60
2023-04-01T00:11:23.510Z,8.60
2023-04-01T00:14:25.371Z,8.60
2023-04-01T00:17:27.255Z,8.60
2023-04-01T00:20:30.334Z,8.60
2023-04-01T00:23:32.220Z,8.60
2023-04-01T00:26:34.007Z,8.60
2023-04-01T00:29:36.497Z,8.50
2023-04-01T00:32:38.670Z,8.60
2023-04-01T00:35:40.748Z,8.50
2023-04-01T00:38:44.060Z,8.60
2023-04-01T00:41:45.912Z,8.50
2023-04-01T00:44:53.277Z,8.50
2023-04-01T00:47:56.016Z,8.50
2023-04-01T00:51:03.636Z,8.50
2023-04-01T00:54:06.381Z,8.50
2023-04-01T00:57:16.272Z,8.50
2023-04-01T01:00:19.100Z,8.50
2023-04-01T01:03:21.218Z,8.50
2023-04-01T01:06:48.166Z,8.40
2023-04-01T01:09:52.973Z,8.40
2023-04-01T01:13:00.916Z,8.40
2023-04-01T01:16:11.606Z,8.40
2023-04-01T01:19:49.062Z,8.40
2023-04-01T01:23:21.984Z,8.40
2023-04-01T01:26:52.227Z,8.30
2023-04-01T01:30:12.797Z,8.30
2023-04-01T01:33:32.665Z,8.30
2023-04-01T01:36:38.626Z,8.30
2023-04-01T01:39:43.219Z,8.30
2023-04-01T01:42:49.376Z,8.30
2023-04-01T01:45:56.564Z,8.30
2023-04-01T01:49:00.749Z,8.30
2023-04-01T01:52:02.549Z,8.30
2023-04-01T01:55:24.464Z,8.30
2023-04-01T01:58:33.123Z,8.30
2023-04-01T02:01:39.639Z,8.30
2023-04-01T02:04:45.021Z,8.30
2023-04-01T02:07:53.070Z,8.30
2023-04-01T02:11:02.359Z,8.30
2023-04-01T02:14:07.892Z,8.30
2023-04-01T02:17:17.436Z,8.30
2023-04-01T02:20:23.959Z,8.30
2023-04-01T02:23:26.485Z,8.30
2023-04-01T02:26:28.455Z,8.30
2023-04-01T02:29:30.530Z,8.30
2023-04-01T02:32:34.800Z,8.30
2023-04-01T02:35:38.297Z,8.30
2023-04-01T02:38:41.113Z,8.30
2023-04-01T02:41:45.132Z,8.30
2023-04-01T02:44:47.026Z,8.30
2023-04-01T02:47:48.885Z,8.30
2023-04-01T02:50:51.041Z,8.30
2023-04-01T02:53:52.968Z,8.30
2023-04-01T02:56:54.949Z,8.30
2023-04-01T02:59:56.680Z,8.40
2023-04-01T03:02:58.532Z,8.30
2023-04-01T03:06:10.047Z,8.40
2023-04-01T03:09:11.842Z,8.30
2023-04-01T03:12:13.866Z,8.30
2023-04-01T03:15:16.250Z,8.30
2023-04-01T03:18:18.044Z,8.40
2023-04-01T03:21:22.399Z,8.40
2023-04-01T03:24:24.184Z,8.40
2023-04-01T03:27:26.255Z,8.30
2023-04-01T03:30:28.192Z,8.30
2023-04-01T03:33:29.959Z,8.30
2023-04-01T03:36:31.872Z,8.30
2023-04-01T03:39:33.832Z,8.30
2023-04-01T03:42:36.267Z,8.30
2023-04-01T03:45:45.957Z,8.30
2023-04-01T03:48:48.193Z,8.30
2023-04-01T03:51:49.972Z,8.10
2023-04-01T03:54:51.660Z,8.20
2023-04-01T03:57:53.454Z,8.20
2023-04-01T04:00:55.882Z,8.20
2023-04-01T04:03:58.487Z,8.20
2023-04-01T04:07:00.310Z,8.20
2023-04-01T04:10:02.046Z,8.20
2023-04-01T04:13:03.823Z,8.20
2023-04-01T04:16:05.935Z,8.20
2023-04-01T04:19:08.559Z,8.20
2023-04-01T04:22:10.338Z,8.10
2023-04-01T04:25:12.144Z,8.10
2023-04-01T04:28:13.900Z,8.10
2023-04-01T04:31:21.701Z,8.10
2023-04-01T04:34:23.825Z,8.10
2023-04-01T04:37:26.875Z,8.10
2023-04-01T04:40:28.708Z,8.20
2023-04-01T04:43:30.520Z,8.10
2023-04-01T04:46:32.296Z,8.10
2023-04-01T04:49:34.080Z,8.10
2023-04-01T04:52:36.497Z,8.20
2023-04-01T04:55:38.383Z,8.10
2023-04-01T04:58:41.153Z,8.10
2023-04-01T05:01:43.073Z,8.10
2023-04-01T05:04:45.010Z,8.10
2023-04-01T05:07:46.795Z,8.10
2023-04-01T05:10:49.509Z,8.10
2023-04-01T05:13:51.603Z,8.10
2023-04-01T05:16:53.628Z,8.10
2023-04-01T05:19:55.588Z,8.10
2023-04-01T05:22:58.303Z,8.10
2023-04-01T05:26:03.858Z,8.10
2023-04-01T05:29:06.076Z,8.20
2023-04-01T05:32:08.217Z,8.20
2023-04-01T05:35:10.268Z,8.20
2023-04-01T05:38:12.021Z,8.20
2023-04-01T05:41:14.662Z,8.20
2023-04-01T05:44:16.456Z,8.30
2023-04-01T05:47:18.351Z,8.20
2023-04-01T05:50:20.947Z,8.30
2023-04-01T05:53:23.308Z,8.30
2023-04-01T05:56:25.538Z,8.40
2023-04-01T05:59:27.478Z,8.40
2023-04-01T06:02:29.801Z,8.50
2023-04-01T06:05:44.063Z,8.50
2023-04-01T06:08:46.077Z,8.50
2023-04-01T06:12:11.256Z,8.50
2023-04-01T06:15:40.541Z,8.50
2023-04-01T06:19:01.695Z,8.60
2023-04-01T06:22:18.787Z,8.60
2023-04-01T06:25:26.472Z,8.60
2023-04-01T06:28:46.910Z,8.70
2023-04-01T06:31:54.924Z,8.70
2023-04-01T06:35:11.931Z,8.70
2023-04-01T06:38:37.631Z,8.80
2023-04-01T06:42:15.371Z,8.80
2023-04-01T06:45:32.526Z,8.80
2023-04-01T06:48:45.077Z,8.90
2023-04-01T06:52:11.544Z,9.00
2023-04-01T06:55:39.026Z,8.90
2023-04-01T06:59:08.071Z,9.10
2023-04-01T07:02:34.767Z,9.20
2023-04-01T07:05:36.919Z,9.20
2023-04-01T07:08:42.063Z,9.30
2023-04-01T07:11:44.201Z,9.30
2023-04-01T07:14:49.806Z,9.30
2023-04-01T07:18:10.585Z,9.40
2023-04-01T07:21:26.331Z,9.40
2023-04-01T07:25:01.543Z,9.50
2023-04-01T07:28:12.821Z,9.50
2023-04-01T07:31:34.857Z,9.50
2023-04-01T07:34:50.004Z,9.50
2023-04-01T07:38:22.083Z,9.60
2023-04-01T07:41:48.788Z,9.60
2023-04-01T07:45:19.697Z,9.50
2023-04-01T07:48:42.933Z,9.50
2023-04-01T07:52:04.956Z,9.50
2023-04-01T07:55:38.534Z,9.50
2023-04-01T07:59:01.493Z,9.50
2023-04-01T08:02:25.232Z,9.50
2023-04-01T08:05:50.678Z,9.50
2023-04-01T08:09:42.644Z,9.50
2023-04-01T08:13:06.602Z,9.50
2023-04-01T08:16:26.659Z,9.60
2023-04-01T08:20:23.043Z,9.60
2023-04-01T08:23:49.600Z,9.60
2023-04-01T08:26:56.319Z,9.60
2023-04-01T08:30:19.879Z,9.60
2023-04-01T08:33:33.785Z,9.60
2023-04-01T08:36:44.237Z,9.60
2023-04-01T08:39:51.134Z,9.60
2023-04-01T08:43:11.671Z,9.60
2023-04-01T08:46:17.279Z,9.60
2023-04-01T08:49:49.759Z,9.60
2023-04-01T08:53:07.409Z,9.60
2023-04-01T08:56:37.907Z,9.70
2023-04-01T08:59:57.038Z,9.60
2023-04-01T09:03:27.119Z,9.70
2023-04-01T09:06:58.451Z,9.60
2023-04-01T09:10:39.299Z,9.60
2023-04-01T09:14:07.701Z,9.60
2023-04-01T09:17:25.504Z,9.60
2023-04-01T09:21:04.215Z,9.60
2023-04-01T09:24:32.823Z,9.60
2023-04-01T09:28:03.372Z,9.50
2023-04-01T09:31:53.031Z,9.50
2023-04-01T09:35:19.326Z,9.50
2023-04-01T09:38:50.032Z,9.50
2023-04-01T09:42:00.908Z,9.50
2023-04-01T09:45:29.381Z,9.50
2023-04-01T09:48:35.050Z,9.50
2023-04-01T09:52:09.841Z,9.60
2023-04-01T09:56:08.479Z,9.60
2023-04-01T09:59:31.790Z,9.60
2023-04-01T10:03:09.121Z,9.60
2023-04-01T10:06:52.125Z,9.60
2023-04-01T10:10:15.695Z,9.60
2023-04-01T10:13:48.322Z,9.70
2023-04-01T10:17:06.166Z,9.80
2023-04-01T10:20:15.840Z,9.90
2023-04-01T10:23:17.533Z,10.00
2023-04-01T10:26:27.030Z,10.10
2023-04-01T10:29:49.325Z,10.20
2023-04-01T10:33:27.693Z,10.40
2023-04-01T10:36:35.795Z,10.50
2023-04-01T10:39:55.399Z,10.60
2023-04-01T10:43:12.570Z,10.70
2023-04-01T10:46:44.692Z,10.80
2023-04-01T10:50:11.719Z,10.80
2023-04-01T10:53:51.093Z,10.90
2023-04-01T10:56:58.397Z,10.90
2023-04-01T11:00:26.263Z,10.90
2023-04-01T11:04:04.177Z,10.80
2023-04-01T11:07:33.874Z,10.70
2023-04-01T11:11:15.308Z,10.70
2023-04-01T11:14:28.467Z,10.60
2023-04-01T11:18:02.132Z,10.60
2023-04-01T11:21:50.703Z,10.60
2023-04-01T11:25:20.415Z,10.60
2023-04-01T11:28:43.591Z,10.50
2023-04-01T11:32:01.969Z,10.50
2023-04-01T11:35:33.329Z,10.50
2023-04-01T11:38:57.508Z,10.50
2023-04-01T11:42:09.006Z,10.50
2023-04-01T11:45:29.714Z,10.40
2023-04-01T11:48:45.561Z,10.40
2023-04-01T11:52:03.910Z,10.40
2023-04-01T11:55:11.600Z,10.40
2023-04-01T11:58:51.253Z,10.50
2023-04-01T12:02:12.689Z,10.40
2023-04-01T12:05:52.558Z,10.40
2023-04-01T12:09:17.533Z,10.40
2023-04-01T12:12:50.780Z,10.30
2023-04-01T12:16:31.047Z,10.30
2023-04-01T12:19:46.770Z,10.20
2023-04-01T12:23:39.572Z,10.20
2023-04-01T12:27:03.815Z,10.20
2023-04-01T12:30:27.132Z,10.30
2023-04-01T12:33:47.397Z,10.30
2023-04-01T12:37:18.145Z,10.40
2023-04-01T12:40:33.388Z,10.40
2023-04-01T12:44:02.804Z,10.50
2023-04-01T12:47:34.663Z,10.50
2023-04-01T12:51:00.674Z,10.60
2023-04-01T12:54:20.720Z,10.60
2023-04-01T12:57:37.546Z,10.70
2023-04-01T13:00:58.213Z,10.80
2023-04-01T13:04:37.426Z,10.80
2023-04-01T13:07:53.048Z,10.80
2023-04-01T13:11:29.474Z,10.80
2023-04-01T13:15:08.314Z,10.90
2023-04-01T13:18:38.745Z,10.80
2023-04-01T13:21:47.011Z,10.90
2023-04-01T13:25:07.676Z,10.90
2023-04-01T13:28:24.571Z,10.90
2023-04-01T13:32:03.786Z,10.90
2023-04-01T13:35:34.941Z,10.90
2023-04-01T13:38:59.747Z,10.90
2023-04-01T13:42:13.926Z,10.90
2023-04-01T13:45:26.445Z,10.90
2023-04-01T13:48:33.930Z,10.90
2023-04-01T13:52:03.108Z,10.90
2023-04-01T13:55:30.228Z,10.90
2023-04-01T13:58:58.890Z,10.90
2023-04-01T14:02:18.484Z,10.80
2023-04-01T14:05:43.747Z,10.80
2023-04-01T14:08:54.628Z,10.70
2023-04-01T14:12:09.709Z,10.70
2023-04-01T14:15:37.916Z,10.60
2023-04-01T14:18:42.936Z,10.60
2023-04-01T14:21:53.166Z,10.60
2023-04-01T14:25:16.827Z,10.50
2023-04-01T14:28:40.436Z,10.50
2023-04-01T14:31:58.304Z,10.50
2023-04-01T14:35:15.865Z,10.40
2023-04-01T14:38:36.742Z,10.40
2023-04-01T14:41:49.443Z,10.40
2023-04-01T14:45:16.447Z,10.40
2023-04-01T14:49:15.350Z,10.40
2023-04-01T14:52:23.403Z,10.40
2023-04-01T14:55:43.476Z,10.40
2023-04-01T14:58:51.594Z,10.40
2023-04-01T15:02:15.886Z,10.40
2023-04-01T15:05:49.980Z,10.40
2023-04-01T15:09:10.460Z,10.50
2023-04-01T15:12:36.334Z,10.50
2023-04-01T15:15:56.369Z,10.50
2023-04-01T15:19:24.130Z,10.40
2023-04-01T15:22:45.993Z,10.40
2023-04-01T15:26:13.990Z,10.40
2023-04-01T15:29:34.485Z,10.30
2023-04-01T15:33:04.343Z,10.30
2023-04-01T15:36:41.799Z,10.30
2023-04-01T15:40:05.478Z,10.30
2023-04-01T15:43:23.718Z,10.30
2023-04-01T15:46:40.558Z,10.30
2023-04-01T15:49:50.726Z,10.30
2023-04-01T15:53:01.290Z,10.30
2023-04-01T15:56:40.870Z,10.20
2023-04-01T16:00:01.379Z,10.20
2023-04-01T16:03:30.141Z,10.20
2023-04-01T16:06:51.366Z,10.20
2023-04-01T16:10:05.507Z,10.10
2023-04-01T16:13:39.351Z,10.10
2023-04-01T16:17:02.188Z,10.00
2023-04-01T16:20:19.087Z,10.00
2023-04-01T16:23:38.616Z,10.00
2023-04-01T16:27:04.721Z,10.00
2023-04-01T16:30:28.868Z,9.90
2023-04-01T16:33:47.844Z,9.90
2023-04-01T16:37:17.148Z,9.90
2023-04-01T16:40:21.763Z,9.90
2023-04-01T16:43:31.688Z,9.90
2023-04-01T16:46:38.461Z,9.90
2023-04-01T16:50:07.821Z,9.90
2023-04-01T16:53:26.147Z,9.90
2023-04-01T16:56:44.869Z,9.90
2023-04-01T17:00:16.999Z,9.90
2023-04-01T17:03:40.105Z,9.90
2023-04-01T17:06:46.614Z,9.90
2023-04-01T17:09:48.375Z,9.90
2023-04-01T17:13:15.506Z,9.80
2023-04-01T17:16:49.564Z,9.80
2023-04-01T17:20:07.978Z,9.80
2023-04-01T17:23:31.969Z,9.80
2023-04-01T17:26:57.638Z,9.70
2023-04-01T17:30:23.730Z,9.70
2023-04-01T17:33:28.438Z,9.70
2023-04-01T17:36:43.040Z,9.70
2023-04-01T17:39:45.230Z,9.70
2023-04-01T17:42:55.915Z,9.60
2023-04-01T17:46:28.897Z,9.60
2023-04-01T17:49:40.544Z,9.60
2023-04-01T17:53:08.964Z,9.50
2023-04-01T17:56:24.545Z,9.40
2023-04-01T17:59:41.637Z,9.50
2023-04-01T18:02:50.791Z,9.50
2023-04-01T18:06:09.240Z,9.50
2023-04-01T18:09:23.978Z,9.50
2023-04-01T18:12:47.445Z,9.40
2023-04-01T18:16:01.138Z,9.40
2023-04-01T18:19:30.909Z,9.40
2023-04-01T18:22:39.744Z,9.40
2023-04-01T18:25:45.261Z,9.40
2023-04-01T18:28:56.751Z,9.30
2023-04-01T18:32:36.296Z,9.30
2023-04-01T18:36:12.817Z,9.40
2023-04-01T18:39:29.529Z,9.30
2023-04-01T18:43:03.529Z,9.30
2023-04-01T18:46:27.085Z,9.30
2023-04-01T18:50:03.690Z,9.30
2023-04-01T18:53:29.952Z,9.30
2023-04-01T18:56:44.225Z,9.20
2023-04-01T19:00:05.814Z,9.20
2023-04-01T19:03:28.000Z,9.20
2023-04-01T19:06:42.120Z,9.20
2023-04-01T19:09:49.364Z,9.20
2023-04-01T19:13:02.984Z,9.20
2023-04-01T19:16:19.850Z,9.20
2023-04-01T19:19:38.488Z,9.20
2023-04-01T19:23:02.623Z,9.20
2023-04-01T19:26:18.509Z,9.20
2023-04-01T19:29:29.868Z,9.20
2023-04-01T19:32:52.033Z,9.20
2023-04-01T19:36:39.794Z,9.20
2023-04-01T19:40:27.437Z,9.20
2023-04-01T19:43:58.670Z,9.10
2023-04-01T19:47:12.940Z,9.10
2023-04-01T19:50:41.385Z,9.20
2023-04-01T19:54:00.313Z,9.20
2023-04-01T19:57:21.505Z,9.20
2023-04-01T20:00:32.671Z,9.10
2023-04-01T20:03:34.769Z,9.10
2023-04-01T20:06:44.861Z,9.10
2023-04-01T20:10:11.234Z,9.10
2023-04-01T20:13:47.543Z,9.10
2023-04-01T20:17:08.549Z,9.10
2023-04-01T20:20:10.969Z,9.10
2023-04-01T20:23:31.424Z,9.10
2023-04-01T20:26:40.909Z,9.00
2023-04-01T20:29:57.807Z,9.00
2023-04-01T20:33:36.665Z,9.00
2023-04-01T20:37:12.121Z,9.00
2023-04-01T20:40:37.221Z,9.00
2023-04-01T20:43:50.651Z,9.00
2023-04-01T20:47:23.621Z,8.90
2023-04-01T20:50:53.070Z,8.90
2023-04-01T20:54:19.172Z,8.90
2023-04-01T20:57:53.551Z,8.90
2023-04-01T21:01:16.123Z,8.90
2023-04-01T21:04:27.203Z,8.90
2023-04-01T21:07:51.711Z,8.80
2023-04-01T21:11:29.029Z,8.80
2023-04-01T21:15:13.796Z,8.80
2023-04-01T21:18:41.860Z,8.80
2023-04-01T21:22:04.046Z,8.90
2023-04-01T21:25:24.627Z,8.70
2023-04-01T21:28:49.503Z,8.70
2023-04-01T21:32:20.285Z,8.70
2023-04-01T21:35:32.861Z,8.70
2023-04-01T21:38:34.905Z,8.60
2023-04-01T21:41:53.586Z,8.70
2023-04-01T21:45:04.080Z,8.70
2023-04-01T21:48:35.843Z,8.70
2023-04-01T21:52:05.785Z,8.70
2023-04-01T21:55:36.337Z,8.60
2023-04-01T21:58:53.422Z,8.70
2023-04-01T22:02:14.253Z,8.70
2023-04-01T22:05:29.137Z,8.70
2023-04-01T22:08:49.080Z,8.70
2023-04-01T22:12:19.243Z,8.60
2023-04-01T22:15:24.191Z,8.70
2023-04-01T22:18:44.907Z,8.60
2023-04-01T22:22:02.683Z,8.60
2023-04-01T22:25:14.632Z,8.60
2023-04-01T22:28:25.874Z,8.60
2023-04-01T22:31:50.088Z,8.60
2023-04-01T22:35:08.733Z,8.60
2023-04-01T22:38:36.918Z,8.60
2023-04-01T22:42:21.786Z,8.60
2023-04-01T22:45:26.407Z,8.60
2023-04-01T22:49:03.027Z,8.60
2023-04-01T22:52:37.779Z,8.60
2023-04-01T22:55:52.762Z,8.60
2023-04-01T22:59:14.994Z,8.70
2023-04-01T23:02:30.369Z,8.60
2023-04-01T23:05:34.316Z,8.60
2023-04-01T23:09:05.949Z,8.60
2023-04-01T23:12:28.574Z,8.60
2023-04-01T23:15:31.238Z,8.60
2023-04-01T23:18:59.041Z,8.60
2023-04-01T23:22:17.577Z,8.60
2023-04-01T23:25:39.155Z,8.40
2023-04-01T23:28:51.960Z,8.60
2023-04-01T23:32:01.770Z,8.60
2023-04-01T23:35:03.704Z,8.60
2023-04-01T23:38:05.875Z,8.50
2023-04-01T23:41:09.779Z,8.50
2023-04-01T23:44:14.410Z,8.50
2023-04-01T23:47:23.762Z,8.50
2023-04-01T23:50:27.427Z,8.50
2023-04-01T23:53:35.022Z,8.50
2023-04-01T23:56:44.516Z,8.40
